createdAt,value
2022-09-06T00:02:21.507Z,19.55
2022-09-06T00:06:43.465Z,20.17
2022-09-06T00:11:06.271Z,19.67
2022-09-06T00:15:28.792Z,18.02
2022-09-06T00:19:50.667Z,17.63
2022-09-06T00:24:12.564Z,18.40
2022-09-06T00:28:34.844Z,17.63
2022-09-06T00:32:57.927Z,16.80
2022-09-06T00:37:20.186Z,16.30
2022-09-06T00:41:42.200Z,15.35
2022-09-06T00:46:07.630Z,14.57
2022-09-06T00:50:29.869Z,15.20
2022-09-06T00:54:52.905Z,14.98
2022-09-06T00:59:15.747Z,15.13
2022-09-06T01:03:38.304Z,15.40
2022-09-06T01:08:10.844Z,16.35
2022-09-06T01:13:12.704Z,17.25
2022-09-06T01:18:07.624Z,16.30
2022-09-06T01:23:07.065Z,15.80
2022-09-06T01:28:36.423Z,16.85
2022-09-06T01:33:19.924Z,15.40
2022-09-06T01:37:42.184Z,14.90
2022-09-06T01:42:10.224Z,15.05
2022-09-06T01:46:42.464Z,15.73
2022-09-06T01:51:39.667Z,14.50
2022-09-06T01:56:29.544Z,15.13
2022-09-06T02:01:12.563Z,14.32
2022-09-06T02:05:59.152Z,13.05
2022-09-06T02:10:58.212Z,12.77
2022-09-06T02:15:26.046Z,11.95
2022-09-06T02:20:13.453Z,12.23
2022-09-06T02:24:39.033Z,11.80
2022-09-06T02:29:01.412Z,11.38
2022-09-06T02:33:29.373Z,11.57
2022-09-06T02:37:52.253Z,11.65
2022-09-06T02:42:16.052Z,11.70
2022-09-06T02:46:38.273Z,11.40
2022-09-06T02:51:06.673Z,11.35
2022-09-06T02:55:28.885Z,10.93
2022-09-06T02:59:51.612Z,11.25
2022-09-06T03:04:13.492Z,11.95
2022-09-06T03:08:36.674Z,12.10
2022-09-06T03:12:58.794Z,13.05
2022-09-06T03:17:20.993Z,12.18
2022-09-06T03:21:43.184Z,11.18
2022-09-06T03:26:06.394Z,12.35
2022-09-06T03:30:28.096Z,12.77
2022-09-06T03:34:49.984Z,12.77
2022-09-06T03:39:12.253Z,12.63
2022-09-06T03:43:34.512Z,13.50
2022-09-06T03:47:56.553Z,12.55
2022-09-06T03:52:18.732Z,12.70
2022-09-06T03:56:40.532Z,12.05
2022-09-06T04:01:09.475Z,11.75
2022-09-06T04:05:31.527Z,12.45
2022-09-06T04:09:53.653Z,12.02
2022-09-06T04:14:15.992Z,12.05
2022-09-06T04:18:37.795Z,13.27
2022-09-06T04:22:59.784Z,11.95
2022-09-06T04:27:21.934Z,12.25
2022-09-06T04:31:43.866Z,12.20
2022-09-06T04:36:10.276Z,12.02
2022-09-06T04:40:32.026Z,11.73
2022-09-06T04:44:54.175Z,12.07
2022-09-06T04:49:16.425Z,12.65
2022-09-06T04:53:38.332Z,11.70
2022-09-06T04:58:01.406Z,11.40
2022-09-06T05:02:23.554Z,10.95
2022-09-06T05:06:45.712Z,10.82
2022-09-06T05:11:08.924Z,10.55
2022-09-06T05:15:31.192Z,11.25
2022-09-06T05:19:53.392Z,11.15
2022-09-06T05:24:15.374Z,10.05
2022-09-06T05:28:37.656Z,10.55
2022-09-06T05:32:59.952Z,11.48
2022-09-06T05:37:22.356Z,10.77
2022-09-06T05:41:44.592Z,9.90
2022-09-06T05:46:06.688Z,9.60
2022-09-06T05:50:28.582Z,9.50
2022-09-06T05:54:50.857Z,9.35
2022-09-06T05:59:12.973Z,9.55
2022-09-06T06:03:35.012Z,8.75
2022-09-06T06:07:58.353Z,8.50
2022-09-06T06:12:20.574Z,9.00
2022-09-06T06:16:42.786Z,8.75
2022-09-06T06:21:16.139Z,8.20
2022-09-06T06:25:37.995Z,8.52
2022-09-06T06:30:00.212Z,7.28
2022-09-06T06:34:22.534Z,7.18
2022-09-06T06:38:46.473Z,6.65
2022-09-06T06:43:11.012Z,7.35
2022-09-06T06:47:33.354Z,6.68
2022-09-06T06:51:55.453Z,7.47
2022-09-06T06:56:25.533Z,7.25
2022-09-06T07:00:47.921Z,7.28
2022-09-06T07:14:35.152Z,7.40
2022-09-06T07:18:57.253Z,7.43
2022-09-06T07:28:07.296Z,8.13
2022-09-06T07:32:31.185Z,7.47
2022-09-06T07:36:56.752Z,6.82
2022-09-06T07:41:19.692Z,7.22
2022-09-06T07:45:41.953Z,6.80
2022-09-06T07:54:48.632Z,6.50
2022-09-06T07:59:10.492Z,6.20
2022-09-06T08:03:32.493Z,5.53
2022-09-06T08:12:36.953Z,4.45
2022-09-06T08:16:59.314Z,4.53
2022-09-06T08:21:26.773Z,4.40
2022-09-06T08:25:59.233Z,4.45
2022-09-06T08:30:21.506Z,4.68
2022-09-06T08:34:43.772Z,4.32
2022-09-06T08:39:07.801Z,4.80
2022-09-06T08:43:30.193Z,4.90
2022-09-06T08:47:52.813Z,4.93
2022-09-06T08:53:18.299Z,4.50
2022-09-06T08:57:52.692Z,4.50
2022-09-06T09:02:20.441Z,3.58
2022-09-06T09:06:45.076Z,4.22
2022-09-06T09:11:16.515Z,4.13
2022-09-06T09:15:40.380Z,4.15
2022-09-06T09:20:03.833Z,3.83
2022-09-06T09:24:25.894Z,4.30
2022-09-06T09:29:14.376Z,4.28
2022-09-06T09:33:40.292Z,4.75
2022-09-06T09:38:35.213Z,4.65
2022-09-06T09:43:10.936Z,5.43
2022-09-06T09:47:34.353Z,4.43
2022-09-06T09:52:15.020Z,4.88
2022-09-06T09:56:53.492Z,4.60
2022-09-06T10:01:31.672Z,4.10
2022-09-06T10:06:02.510Z,4.13
2022-09-06T10:10:54.633Z,3.92
2022-09-06T10:15:39.172Z,3.40
2022-09-06T10:20:10.593Z,3.88
2022-09-06T10:24:52.432Z,3.30
2022-09-06T10:29:18.592Z,3.05
2022-09-06T10:33:55.317Z,2.97
2022-09-06T10:38:46.836Z,2.53
2022-09-06T10:43:19.297Z,3.13
2022-09-06T10:48:24.752Z,2.38
2022-09-06T10:52:49.152Z,1.90
2022-09-06T11:02:45.359Z,2.10
2022-09-06T11:07:38.151Z,1.80
2022-09-06T11:12:06.531Z,2.50
2022-09-06T11:16:39.792Z,2.28
2022-09-06T11:21:51.052Z,1.98
2022-09-06T11:26:35.332Z,2.53
2022-09-06T11:30:59.264Z,2.58
2022-09-06T11:35:27.453Z,2.53
2022-09-06T11:40:32.126Z,2.60
2022-09-06T11:45:41.374Z,2.55
2022-09-06T11:50:21.851Z,3.50
2022-09-06T11:54:46.932Z,3.40
2022-09-06T11:59:20.511Z,3.55
2022-09-06T12:04:04.872Z,3.83
2022-09-06T12:08:34.308Z,3.90
2022-09-06T12:12:57.312Z,5.00
2022-09-06T12:17:21.111Z,3.33
2022-09-06T12:21:52.536Z,2.17
2022-09-06T12:26:55.533Z,1.75
2022-09-06T12:31:36.685Z,2.25
2022-09-06T12:36:23.732Z,2.20
2022-09-06T12:40:48.853Z,2.30
2022-09-06T12:45:12.514Z,2.33
2022-09-06T12:49:34.574Z,2.17
2022-09-06T12:54:04.393Z,2.38
2022-09-06T12:58:29.743Z,1.92
2022-09-06T13:02:56.744Z,2.60
2022-09-06T13:07:21.912Z,2.78
2022-09-06T13:11:50.094Z,3.00
2022-09-06T13:16:12.418Z,3.40
2022-09-06T13:20:34.567Z,3.08
2022-09-06T13:24:56.792Z,3.70
2022-09-06T13:29:20.130Z,3.60
2022-09-06T13:33:42.268Z,3.30
2022-09-06T13:38:43.432Z,3.25
2022-09-06T13:43:13.112Z,3.08
2022-09-06T13:47:35.193Z,3.80
2022-09-06T13:52:03.233Z,3.08
2022-09-06T13:56:25.295Z,2.47
2022-09-06T14:00:47.468Z,2.28
2022-09-06T14:05:13.512Z,2.70
2022-09-06T14:09:35.412Z,2.60
2022-09-06T14:13:57.735Z,2.80
2022-09-06T14:18:19.534Z,2.42
2022-09-06T14:22:41.633Z,2.28
2022-09-06T14:27:05.733Z,2.10
2022-09-06T14:31:28.904Z,2.33
2022-09-06T14:35:50.874Z,2.42
2022-09-06T14:40:13.166Z,2.22
2022-09-06T14:44:35.355Z,2.10
2022-09-06T14:49:01.993Z,2.40
2022-09-06T14:53:39.723Z,2.30
2022-09-06T14:58:02.772Z,2.10
2022-09-06T15:02:26.493Z,2.05
2022-09-06T15:06:48.652Z,1.90
2022-09-06T15:11:12.391Z,2.50
2022-09-06T15:15:34.527Z,2.33
2022-09-06T15:19:56.601Z,2.78
2022-09-06T15:24:19.860Z,2.33
2022-09-06T15:28:46.240Z,2.97
2022-09-06T15:33:10.269Z,2.67
2022-09-06T15:37:32.412Z,2.40
2022-09-06T15:41:54.677Z,2.97
2022-09-06T15:46:23.344Z,2.63
2022-09-06T15:50:51.671Z,2.45
2022-09-06T15:55:32.472Z,3.13
2022-09-06T15:59:55.644Z,2.70
2022-09-06T16:04:17.456Z,3.05
2022-09-06T16:08:39.816Z,3.05
2022-09-06T16:13:01.835Z,3.25
2022-09-06T16:17:27.553Z,3.00
2022-09-06T16:21:49.413Z,3.03
2022-09-06T16:26:11.493Z,3.50
2022-09-06T16:30:33.509Z,2.65
2022-09-06T16:34:55.894Z,3.30
2022-09-06T16:39:17.934Z,3.20
2022-09-06T16:43:40.373Z,3.10
2022-09-06T16:48:02.654Z,3.35
2022-09-06T16:52:25.042Z,2.63
2022-09-06T16:56:47.392Z,2.63
2022-09-06T17:01:10.966Z,2.97
2022-09-06T17:05:35.685Z,2.92
2022-09-06T17:09:57.853Z,2.65
2022-09-06T17:14:20.013Z,2.35
2022-09-06T17:18:41.965Z,2.50
2022-09-06T17:23:04.057Z,2.58
2022-09-06T17:27:26.285Z,2.72
2022-09-06T17:31:49.755Z,3.03
2022-09-06T17:36:18.873Z,2.78
2022-09-06T17:40:41.173Z,3.00
2022-09-06T17:45:03.374Z,2.97
2022-09-06T17:49:27.064Z,3.50
2022-09-06T17:53:49.134Z,3.90
2022-09-06T17:58:11.832Z,3.67
2022-09-06T18:02:33.793Z,4.07
2022-09-06T18:06:56.093Z,4.10
2022-09-06T18:11:32.093Z,4.70
2022-09-06T18:15:54.340Z,4.28
2022-09-06T18:20:16.486Z,4.32
2022-09-06T18:24:38.491Z,4.60
2022-09-06T18:29:01.278Z,5.30
2022-09-06T18:33:23.996Z,4.93
2022-09-06T18:37:46.033Z,5.63
2022-09-06T18:42:11.414Z,5.47
2022-09-06T18:46:36.725Z,5.47
2022-09-06T18:51:13.313Z,6.07
2022-09-06T18:55:44.972Z,4.97
2022-09-06T19:00:07.898Z,4.82
2022-09-06T19:04:30.213Z,4.65
2022-09-06T19:08:54.005Z,5.32
2022-09-06T19:13:15.952Z,5.75
2022-09-06T19:17:38.377Z,5.50
2022-09-06T19:22:00.719Z,5.80
2022-09-06T19:26:24.707Z,6.22
2022-09-06T19:30:47.108Z,6.43
2022-09-06T19:35:09.913Z,6.90
2022-09-06T19:39:36.768Z,6.47
2022-09-06T19:44:00.272Z,8.20
2022-09-06T19:48:22.839Z,7.13
2022-09-06T19:52:45.093Z,7.40
2022-09-06T19:57:06.993Z,9.52
2022-09-06T20:01:32.963Z,8.00
2022-09-06T20:05:59.732Z,9.60
2022-09-06T20:10:22.053Z,8.10
2022-09-06T20:14:44.269Z,7.93
2022-09-06T20:19:06.639Z,8.80
2022-09-06T20:23:30.992Z,9.90
2022-09-06T20:27:53.273Z,10.50
2022-09-06T20:32:15.114Z,10.60
2022-09-06T20:36:37.460Z,10.38
2022-09-06T20:41:11.232Z,11.80
2022-09-06T20:45:33.535Z,10.65
2022-09-06T20:49:55.633Z,11.68
2022-09-06T20:54:17.853Z,11.48
2022-09-06T20:58:41.084Z,11.60
2022-09-06T21:03:03.033Z,11.45
2022-09-06T21:07:25.164Z,11.40
2022-09-06T21:11:47.814Z,12.13
2022-09-06T21:16:10.556Z,11.27
2022-09-06T21:20:32.850Z,12.23
2022-09-06T21:24:54.833Z,13.10
2022-09-06T21:29:16.573Z,13.70
2022-09-06T21:33:47.560Z,15.05
2022-09-06T21:38:09.358Z,14.65
2022-09-06T21:42:31.013Z,15.15
2022-09-06T21:46:53.291Z,16.50
2022-09-06T21:51:18.813Z,16.33
2022-09-06T21:55:41.813Z,16.10
2022-09-06T22:00:06.096Z,17.98
2022-09-06T22:04:27.873Z,17.02
2022-09-06T22:08:49.912Z,16.80
2022-09-06T22:13:11.853Z,16.80
2022-09-06T22:17:33.995Z,16.85
2022-09-06T22:21:56.113Z,16.13
2022-09-06T22:26:18.994Z,16.63
2022-09-06T22:30:40.873Z,16.70
2022-09-06T22:35:06.091Z,15.80
2022-09-06T22:39:28.149Z,16.75
2022-09-06T22:43:50.233Z,16.10
2022-09-06T22:48:13.335Z,18.13
2022-09-06T22:52:35.455Z,17.83
2022-09-06T22:56:57.644Z,17.95
2022-09-06T23:01:20.029Z,17.23
2022-09-06T23:05:42.352Z,16.42
2022-09-06T23:10:05.432Z,19.35
2022-09-06T23:14:29.159Z,18.27
2022-09-06T23:18:51.530Z,17.40
2022-09-06T23:23:13.834Z,17.55
2022-09-06T23:27:35.818Z,17.08
2022-09-06T23:31:57.853Z,17.77
2022-09-06T23:36:19.836Z,18.90
2022-09-06T23:40:41.992Z,19.88
2022-09-06T23:45:04.733Z,19.83
2022-09-06T23:49:26.493Z,20.17
2022-09-06T23:53:48.654Z,25.20
2022-09-06T23:58:11.533Z,23.85
